sensor_id;sensor_type;location;lat;lon;timestamp;temperature;humidity
19060;DHT22;9663;48.996;8.334;2023-07-31T00:00:33;21.00;47.40
19060;DHT22;9663;48.996;8.334;2023-07-31T00:02:59;21.00;47.40
19060;DHT22;9663;48.996;8.334;2023-07-31T00:05:25;20.90;47.50
19060;DHT22;9663;48.996;8.334;2023-07-31T00:07:50;20.80;47.60
19060;DHT22;9663;48.996;8.334;2023-07-31T00:10:16;20.80;47.80
19060;DHT22;9663;48.996;8.334;2023-07-31T00:12:43;20.70;47.90
19060;DHT22;9663;48.996;8.334;2023-07-31T00:15:10;20.70;48.10
19060;DHT22;9663;48.996;8.334;2023-07-31T00:17:36;20.60;48.20
19060;DHT22;9663;48.996;8.334;2023-07-31T00:20:02;20.60;48.30
19060;DHT22;9663;48.996;8.334;2023-07-31T00:22:28;20.50;48.40
19060;DHT22;9663;48.996;8.334;2023-07-31T00:24:56;20.50;48.40
19060;DHT22;9663;48.996;8.334;2023-07-31T00:27:22;20.50;48.50
19060;DHT22;9663;48.996;8.334;2023-07-31T00:29:48;20.50;48.50
19060;DHT22;9663;48.996;8.334;2023-07-31T00:32:13;20.50;48.50
19060;DHT22;9663;48.996;8.334;2023-07-31T00:34:39;20.40;48.50
19060;DHT22;9663;48.996;8.334;2023-07-31T00:37:05;20.50;48.60
19060;DHT22;9663;48.996;8.334;2023-07-31T00:39:31;20.50;48.70
19060;DHT22;9663;48.996;8.334;2023-07-31T00:41:58;20.40;48.80
19060;DHT22;9663;48.996;8.334;2023-07-31T00:44:24;20.40;48.80
19060;DHT22;9663;48.996;8.334;2023-07-31T00:46:50;20.40;48.80
19060;DHT22;9663;48.996;8.334;2023-07-31T00:49:16;20.40;48.90
19060;DHT22;9663;48.996;8.334;2023-07-31T00:51:42;20.40;48.90
19060;DHT22;9663;48.996;8.334;2023-07-31T00:54:07;20.40;48.80
19060;DHT22;9663;48.996;8.334;2023-07-31T00:56:33;20.40;48.90
19060;DHT22;9663;48.996;8.334;2023-07-31T00:58:59;20.40;49.00
19060;DHT22;9663;48.996;8.334;2023-07-31T01:01:25;20.30;49.00
19060;DHT22;9663;48.996;8.334;2023-07-31T01:03:52;20.30;49.10
19060;DHT22;9663;48.996;8.334;2023-07-31T01:06:36;20.30;49.20
19060;DHT22;9663;48.996;8.334;2023-07-31T01:09:36;20.30;49.80
19060;DHT22;9663;48.996;8.334;2023-07-31T01:12:15;20.30;49.60
19060;DHT22;9663;48.996;8.334;2023-07-31T01:14:52;20.20;49.30
19060;DHT22;9663;48.996;8.334;2023-07-31T01:17:37;20.20;50.00
19060;DHT22;9663;48.996;8.334;2023-07-31T01:20:09;20.10;49.40
19060;DHT22;9663;48.996;8.334;2023-07-31T01:31:25;20.00;50.40
19060;DHT22;9663;48.996;8.334;2023-07-31T01:33:54;19.90;49.80
19060;DHT22;9663;48.996;8.334;2023-07-31T01:36:23;19.80;49.90
19060;DHT22;9663;48.996;8.334;2023-07-31T01:38:49;19.80;50.00
19060;DHT22;9663;48.996;8.334;2023-07-31T01:41:18;19.80;50.00
19060;DHT22;9663;48.996;8.334;2023-07-31T01:43:45;19.70;50.20
19060;DHT22;9663;48.996;8.334;2023-07-31T01:46:11;19.70;50.10
19060;DHT22;9663;48.996;8.334;2023-07-31T01:48:37;19.70;50.20
19060;DHT22;9663;48.996;8.334;2023-07-31T01:51:03;19.70;50.20
19060;DHT22;9663;48.996;8.334;2023-07-31T01:53:30;19.60;50.20
19060;DHT22;9663;48.996;8.334;2023-07-31T01:55:56;19.60;50.40
19060;DHT22;9663;48.996;8.334;2023-07-31T01:58:22;19.60;50.40
19060;DHT22;9663;48.996;8.334;2023-07-31T02:00:48;19.50;50.30
19060;DHT22;9663;48.996;8.334;2023-07-31T02:03:13;19.50;50.40
19060;DHT22;9663;48.996;8.334;2023-07-31T02:05:46;19.50;50.50
19060;DHT22;9663;48.996;8.334;2023-07-31T02:08:13;19.50;50.90
19060;DHT22;9663;48.996;8.334;2023-07-31T02:10:40;19.50;50.50
19060;DHT22;9663;48.996;8.334;2023-07-31T02:13:06;19.50;50.70
19060;DHT22;9663;48.996;8.334;2023-07-31T02:15:32;19.50;50.70
19060;DHT22;9663;48.996;8.334;2023-07-31T02:17:59;19.50;50.80
19060;DHT22;9663;48.996;8.334;2023-07-31T02:20:24;19.50;50.80
19060;DHT22;9663;48.996;8.334;2023-07-31T02:22:50;19.40;50.80
19060;DHT22;9663;48.996;8.334;2023-07-31T02:25:16;19.40;50.90
19060;DHT22;9663;48.996;8.334;2023-07-31T02:27:42;19.40;50.90
19060;DHT22;9663;48.996;8.334;2023-07-31T02:30:08;19.40;50.90
19060;DHT22;9663;48.996;8.334;2023-07-31T02:32:34;19.40;51.00
19060;DHT22;9663;48.996;8.334;2023-07-31T02:35:00;19.40;51.00
19060;DHT22;9663;48.996;8.334;2023-07-31T02:37:25;19.40;51.00
19060;DHT22;9663;48.996;8.334;2023-07-31T02:39:51;19.40;51.00
19060;DHT22;9663;48.996;8.334;2023-07-31T02:42:17;19.40;51.00
19060;DHT22;9663;48.996;8.334;2023-07-31T02:44:42;19.40;51.10
19060;DHT22;9663;48.996;8.334;2023-07-31T02:47:08;19.40;51.10
19060;DHT22;9663;48.996;8.334;2023-07-31T02:49:34;19.40;51.10
19060;DHT22;9663;48.996;8.334;2023-07-31T02:52:00;19.40;51.20
19060;DHT22;9663;48.996;8.334;2023-07-31T02:54:25;19.40;51.10
19060;DHT22;9663;48.996;8.334;2023-07-31T02:56:51;19.40;51.20
19060;DHT22;9663;48.996;8.334;2023-07-31T02:59:17;19.40;51.10
19060;DHT22;9663;48.996;8.334;2023-07-31T03:01:43;19.40;51.10
19060;DHT22;9663;48.996;8.334;2023-07-31T03:04:09;19.40;51.20
19060;DHT22;9663;48.996;8.334;2023-07-31T03:06:35;19.50;51.30
19060;DHT22;9663;48.996;8.334;2023-07-31T03:09:00;19.50;51.30
19060;DHT22;9663;48.996;8.334;2023-07-31T03:11:26;19.50;51.30
19060;DHT22;9663;48.996;8.334;2023-07-31T03:13:51;19.50;51.20
19060;DHT22;9663;48.996;8.334;2023-07-31T03:16:17;19.50;51.30
19060;DHT22;9663;48.996;8.334;2023-07-31T03:18:43;19.50;51.20
19060;DHT22;9663;48.996;8.334;2023-07-31T03:21:08;19.50;51.30
19060;DHT22;9663;48.996;8.334;2023-07-31T03:23:34;19.50;51.30
19060;DHT22;9663;48.996;8.334;2023-07-31T03:26:01;19.60;51.30
19060;DHT22;9663;48.996;8.334;2023-07-31T03:28:29;19.60;51.30
19060;DHT22;9663;48.996;8.334;2023-07-31T03:30:55;19.60;51.20
19060;DHT22;9663;48.996;8.334;2023-07-31T03:33:21;19.60;51.20
19060;DHT22;9663;48.996;8.334;2023-07-31T03:35:47;19.60;51.20
19060;DHT22;9663;48.996;8.334;2023-07-31T03:38:13;19.60;51.20
19060;DHT22;9663;48.996;8.334;2023-07-31T03:40:39;19.60;51.20
19060;DHT22;9663;48.996;8.334;2023-07-31T03:43:05;19.60;51.20
19060;DHT22;9663;48.996;8.334;2023-07-31T03:45:31;19.60;51.30
19060;DHT22;9663;48.996;8.334;2023-07-31T03:47:57;19.60;51.20
19060;DHT22;9663;48.996;8.334;2023-07-31T03:50:22;19.60;51.20
19060;DHT22;9663;48.996;8.334;2023-07-31T03:52:50;19.70;51.30
19060;DHT22;9663;48.996;8.334;2023-07-31T03:55:16;19.70;51.30
19060;DHT22;9663;48.996;8.334;2023-07-31T03:57:41;19.70;51.30
19060;DHT22;9663;48.996;8.334;2023-07-31T04:00:07;19.70;51.20
19060;DHT22;9663;48.996;8.334;2023-07-31T04:02:33;19.80;51.30
19060;DHT22;9663;48.996;8.334;2023-07-31T04:04:59;19.80;51.30
19060;DHT22;9663;48.996;8.334;2023-07-31T04:07:25;19.80;51.20
19060;DHT22;9663;48.996;8.334;2023-07-31T04:09:50;19.80;51.20
19060;DHT22;9663;48.996;8.334;2023-07-31T04:12:16;19.80;51.30
19060;DHT22;9663;48.996;8.334;2023-07-31T04:14:41;19.80;51.20
19060;DHT22;9663;48.996;8.334;2023-07-31T04:17:07;19.90;51.20
19060;DHT22;9663;48.996;8.334;2023-07-31T04:19:33;19.90;51.20
19060;DHT22;9663;48.996;8.334;2023-07-31T04:21:58;19.90;51.20
19060;DHT22;9663;48.996;8.334;2023-07-31T04:24:24;19.90;51.20
19060;DHT22;9663;48.996;8.334;2023-07-31T04:26:53;19.90;51.20
19060;DHT22;9663;48.996;8.334;2023-07-31T04:29:19;20.00;51.30
19060;DHT22;9663;48.996;8.334;2023-07-31T04:31:45;19.90;51.20
19060;DHT22;9663;48.996;8.334;2023-07-31T04:34:11;19.90;51.20
19060;DHT22;9663;48.996;8.334;2023-07-31T04:36:37;20.00;51.30
19060;DHT22;9663;48.996;8.334;2023-07-31T04:39:03;20.00;51.30
19060;DHT22;9663;48.996;8.334;2023-07-31T04:41:29;20.00;51.30
19060;DHT22;9663;48.996;8.334;2023-07-31T04:43:55;20.00;51.30
19060;DHT22;9663;48.996;8.334;2023-07-31T04:46:20;20.00;51.30
19060;DHT22;9663;48.996;8.334;2023-07-31T04:48:46;20.00;51.30
19060;DHT22;9663;48.996;8.334;2023-07-31T04:51:11;20.00;51.30
19060;DHT22;9663;48.996;8.334;2023-07-31T04:53:37;20.00;51.90
19060;DHT22;9663;48.996;8.334;2023-07-31T04:56:03;20.00;51.30
19060;DHT22;9663;48.996;8.334;2023-07-31T04:58:29;20.00;51.40
19060;DHT22;9663;48.996;8.334;2023-07-31T05:00:54;20.00;51.40
19060;DHT22;9663;48.996;8.334;2023-07-31T05:03:20;20.00;51.40
19060;DHT22;9663;48.996;8.334;2023-07-31T05:05:46;20.00;51.40
19060;DHT22;9663;48.996;8.334;2023-07-31T05:08:11;20.10;52.20
19060;DHT22;9663;48.996;8.334;2023-07-31T05:10:37;20.10;51.50
19060;DHT22;9663;48.996;8.334;2023-07-31T05:13:03;20.10;51.50
19060;DHT22;9663;48.996;8.334;2023-07-31T05:15:29;20.10;51.60
19060;DHT22;9663;48.996;8.334;2023-07-31T05:17:55;20.20;51.60
19060;DHT22;9663;48.996;8.334;2023-07-31T05:20:21;20.20;51.60
19060;DHT22;9663;48.996;8.334;2023-07-31T05:22:47;20.20;51.50
19060;DHT22;9663;48.996;8.334;2023-07-31T05:25:13;20.30;51.70
19060;DHT22;9663;48.996;8.334;2023-07-31T05:27:38;20.40;51.70
19060;DHT22;9663;48.996;8.334;2023-07-31T05:30:05;20.40;51.70
19060;DHT22;9663;48.996;8.334;2023-07-31T05:32:31;20.50;51.70
19060;DHT22;9663;48.996;8.334;2023-07-31T05:34:57;20.60;51.60
19060;DHT22;9663;48.996;8.334;2023-07-31T05:37:24;20.60;51.60
19060;DHT22;9663;48.996;8.334;2023-07-31T05:39:49;20.70;51.60
19060;DHT22;9663;48.996;8.334;2023-07-31T05:42:16;20.80;51.60
19060;DHT22;9663;48.996;8.334;2023-07-31T05:44:41;20.90;51.70
19060;DHT22;9663;48.996;8.334;2023-07-31T05:47:07;21.00;51.60
19060;DHT22;9663;48.996;8.334;2023-07-31T05:49:33;21.00;51.40
19060;DHT22;9663;48.996;8.334;2023-07-31T05:51:58;21.10;51.30
19060;DHT22;9663;48.996;8.334;2023-07-31T05:54:24;21.20;51.40
19060;DHT22;9663;48.996;8.334;2023-07-31T05:56:50;21.20;51.20
19060;DHT22;9663;48.996;8.334;2023-07-31T05:59:16;21.30;51.20
19060;DHT22;9663;48.996;8.334;2023-07-31T06:01:42;21.40;51.10
19060;DHT22;9663;48.996;8.334;2023-07-31T06:04:07;21.30;51.10
19060;DHT22;9663;48.996;8.334;2023-07-31T06:06:33;21.40;51.10
19060;DHT22;9663;48.996;8.334;2023-07-31T06:08:59;21.50;51.10
19060;DHT22;9663;48.996;8.334;2023-07-31T06:11:25;21.60;51.20
19060;DHT22;9663;48.996;8.334;2023-07-31T06:13:51;21.70;51.20
19060;DHT22;9663;48.996;8.334;2023-07-31T06:16:16;21.70;51.70
19060;DHT22;9663;48.996;8.334;2023-07-31T06:18:42;21.80;51.00
19060;DHT22;9663;48.996;8.334;2023-07-31T06:21:09;21.90;50.90
19060;DHT22;9663;48.996;8.334;2023-07-31T06:23:36;22.00;50.90
19060;DHT22;9663;48.996;8.334;2023-07-31T06:26:01;22.10;50.80
19060;DHT22;9663;48.996;8.334;2023-07-31T06:28:28;22.10;50.70
19060;DHT22;9663;48.996;8.334;2023-07-31T06:30:57;22.20;50.70
19060;DHT22;9663;48.996;8.334;2023-07-31T06:33:24;22.30;50.60
19060;DHT22;9663;48.996;8.334;2023-07-31T06:35:50;22.30;50.50
19060;DHT22;9663;48.996;8.334;2023-07-31T06:38:18;22.40;50.50
19060;DHT22;9663;48.996;8.334;2023-07-31T06:40:47;22.50;50.40
19060;DHT22;9663;48.996;8.334;2023-07-31T06:43:12;22.60;50.40
19060;DHT22;9663;48.996;8.334;2023-07-31T06:45:38;22.70;50.30
19060;DHT22;9663;48.996;8.334;2023-07-31T06:48:04;22.70;50.20
19060;DHT22;9663;48.996;8.334;2023-07-31T06:50:30;22.80;50.00
19060;DHT22;9663;48.996;8.334;2023-07-31T06:52:57;22.80;50.00
19060;DHT22;9663;48.996;8.334;2023-07-31T06:55:23;22.80;50.00
19060;DHT22;9663;48.996;8.334;2023-07-31T06:57:51;22.80;50.00
19060;DHT22;9663;48.996;8.334;2023-07-31T07:00:19;22.80;49.70
19060;DHT22;9663;48.996;8.334;2023-07-31T07:02:46;22.80;49.60
19060;DHT22;9663;48.996;8.334;2023-07-31T07:05:16;22.80;49.70
19060;DHT22;9663;48.996;8.334;2023-07-31T07:07:42;22.70;49.60
19060;DHT22;9663;48.996;8.334;2023-07-31T07:10:09;22.70;49.70
19060;DHT22;9663;48.996;8.334;2023-07-31T07:12:35;22.70;49.80
19060;DHT22;9663;48.996;8.334;2023-07-31T07:15:01;22.70;49.90
19060;DHT22;9663;48.996;8.334;2023-07-31T07:17:29;22.70;49.90
19060;DHT22;9663;48.996;8.334;2023-07-31T07:19:56;22.70;49.90
19060;DHT22;9663;48.996;8.334;2023-07-31T07:22:23;22.80;49.90
19060;DHT22;9663;48.996;8.334;2023-07-31T07:24:49;22.90;49.90
19060;DHT22;9663;48.996;8.334;2023-07-31T07:27:15;22.90;50.00
19060;DHT22;9663;48.996;8.334;2023-07-31T07:29:40;23.00;50.00
19060;DHT22;9663;48.996;8.334;2023-07-31T07:32:06;23.10;49.90
19060;DHT22;9663;48.996;8.334;2023-07-31T07:34:32;23.20;49.70
19060;DHT22;9663;48.996;8.334;2023-07-31T07:36:58;23.30;49.80
19060;DHT22;9663;48.996;8.334;2023-07-31T07:39:23;23.40;49.60
19060;DHT22;9663;48.996;8.334;2023-07-31T07:41:50;23.50;49.60
19060;DHT22;9663;48.996;8.334;2023-07-31T07:44:15;23.60;49.60
19060;DHT22;9663;48.996;8.334;2023-07-31T07:46:41;23.70;49.50
19060;DHT22;9663;48.996;8.334;2023-07-31T07:49:07;23.80;49.20
19060;DHT22;9663;48.996;8.334;2023-07-31T07:51:33;23.90;49.10
19060;DHT22;9663;48.996;8.334;2023-07-31T07:53:59;24.00;49.00
19060;DHT22;9663;48.996;8.334;2023-07-31T07:56:26;24.00;48.80
19060;DHT22;9663;48.996;8.334;2023-07-31T07:58:52;24.10;48.80
19060;DHT22;9663;48.996;8.334;2023-07-31T08:01:18;24.10;48.70
19060;DHT22;9663;48.996;8.334;2023-07-31T08:03:44;24.10;48.70
19060;DHT22;9663;48.996;8.334;2023-07-31T08:06:10;24.20;48.70
19060;DHT22;9663;48.996;8.334;2023-07-31T08:08:37;24.20;48.60
19060;DHT22;9663;48.996;8.334;2023-07-31T08:11:03;24.30;48.60
19060;DHT22;9663;48.996;8.334;2023-07-31T08:13:29;24.30;48.40
19060;DHT22;9663;48.996;8.334;2023-07-31T08:15:55;24.40;48.40
19060;DHT22;9663;48.996;8.334;2023-07-31T08:18:21;24.40;48.50
19060;DHT22;9663;48.996;8.334;2023-07-31T08:20:47;24.50;48.50
19060;DHT22;9663;48.996;8.334;2023-07-31T08:23:13;24.60;48.50
19060;DHT22;9663;48.996;8.334;2023-07-31T08:25:38;24.70;48.40
19060;DHT22;9663;48.996;8.334;2023-07-31T08:28:05;24.80;48.30
19060;DHT22;9663;48.996;8.334;2023-07-31T08:30:32;24.80;48.20
19060;DHT22;9663;48.996;8.334;2023-07-31T08:32:59;24.90;48.10
19060;DHT22;9663;48.996;8.334;2023-07-31T08:35:26;25.00;47.90
19060;DHT22;9663;48.996;8.334;2023-07-31T08:37:53;25.10;47.70
19060;DHT22;9663;48.996;8.334;2023-07-31T08:40:19;25.20;48.20
19060;DHT22;9663;48.996;8.334;2023-07-31T08:42:46;25.20;47.40
19060;DHT22;9663;48.996;8.334;2023-07-31T08:45:18;25.30;47.50
19060;DHT22;9663;48.996;8.334;2023-07-31T08:47:51;25.40;47.30
19060;DHT22;9663;48.996;8.334;2023-07-31T08:50:19;25.50;47.60
19060;DHT22;9663;48.996;8.334;2023-07-31T08:52:47;25.60;47.80
19060;DHT22;9663;48.996;8.334;2023-07-31T08:55:14;25.80;47.30
19060;DHT22;9663;48.996;8.334;2023-07-31T08:57:41;25.80;46.80
19060;DHT22;9663;48.996;8.334;2023-07-31T09:00:09;25.90;46.50
19060;DHT22;9663;48.996;8.334;2023-07-31T09:02:46;25.90;46.80
19060;DHT22;9663;48.996;8.334;2023-07-31T09:05:17;25.90;46.70
19060;DHT22;9663;48.996;8.334;2023-07-31T09:07:47;26.00;46.90
19060;DHT22;9663;48.996;8.334;2023-07-31T09:10:15;26.10;46.70
19060;DHT22;9663;48.996;8.334;2023-07-31T09:12:41;26.20;46.60
19060;DHT22;9663;48.996;8.334;2023-07-31T09:15:08;26.30;46.50
19060;DHT22;9663;48.996;8.334;2023-07-31T09:17:36;26.30;46.50
19060;DHT22;9663;48.996;8.334;2023-07-31T09:20:16;26.50;46.70
19060;DHT22;9663;48.996;8.334;2023-07-31T09:22:44;26.60;46.30
19060;DHT22;9663;48.996;8.334;2023-07-31T09:28:03;26.90;46.00
19060;DHT22;9663;48.996;8.334;2023-07-31T09:30:30;27.10;45.50
19060;DHT22;9663;48.996;8.334;2023-07-31T09:33:09;27.20;45.90
19060;DHT22;9663;48.996;8.334;2023-07-31T09:35:35;27.30;45.50
19060;DHT22;9663;48.996;8.334;2023-07-31T09:38:05;27.30;45.30
19060;DHT22;9663;48.996;8.334;2023-07-31T09:40:34;27.30;45.20
19060;DHT22;9663;48.996;8.334;2023-07-31T09:45:47;27.40;44.60
19060;DHT22;9663;48.996;8.334;2023-07-31T09:48:15;27.40;44.60
19060;DHT22;9663;48.996;8.334;2023-07-31T09:50:43;27.40;44.30
19060;DHT22;9663;48.996;8.334;2023-07-31T09:53:11;27.40;44.40
19060;DHT22;9663;48.996;8.334;2023-07-31T09:55:38;27.30;44.10
19060;DHT22;9663;48.996;8.334;2023-07-31T09:58:07;27.30;44.00
19060;DHT22;9663;48.996;8.334;2023-07-31T10:00:34;27.30;44.10
19060;DHT22;9663;48.996;8.334;2023-07-31T10:03:02;27.40;44.00
19060;DHT22;9663;48.996;8.334;2023-07-31T10:05:43;27.30;43.90
19060;DHT22;9663;48.996;8.334;2023-07-31T10:08:15;27.40;43.40
19060;DHT22;9663;48.996;8.334;2023-07-31T10:10:44;27.40;43.50
19060;DHT22;9663;48.996;8.334;2023-07-31T10:13:11;27.40;43.70
19060;DHT22;9663;48.996;8.334;2023-07-31T10:15:38;27.40;43.50
19060;DHT22;9663;48.996;8.334;2023-07-31T10:18:06;27.40;43.70
19060;DHT22;9663;48.996;8.334;2023-07-31T10:20:32;27.50;43.90
19060;DHT22;9663;48.996;8.334;2023-07-31T10:22:58;27.50;43.90
19060;DHT22;9663;48.996;8.334;2023-07-31T10:25:26;27.60;44.00
19060;DHT22;9663;48.996;8.334;2023-07-31T10:27:53;27.70;43.40
19060;DHT22;9663;48.996;8.334;2023-07-31T10:30:22;27.70;43.00
19060;DHT22;9663;48.996;8.334;2023-07-31T10:32:51;27.60;43.00
19060;DHT22;9663;48.996;8.334;2023-07-31T10:35:19;27.60;43.10
19060;DHT22;9663;48.996;8.334;2023-07-31T10:37:47;27.50;43.10
19060;DHT22;9663;48.996;8.334;2023-07-31T10:40:26;27.50;43.20
19060;DHT22;9663;48.996;8.334;2023-07-31T10:45:41;27.50;43.10
19060;DHT22;9663;48.996;8.334;2023-07-31T10:48:15;27.30;42.20
19060;DHT22;9663;48.996;8.334;2023-07-31T10:50:52;27.30;42.80
19060;DHT22;9663;48.996;8.334;2023-07-31T10:53:29;27.40;43.10
19060;DHT22;9663;48.996;8.334;2023-07-31T10:56:03;27.40;43.10
19060;DHT22;9663;48.996;8.334;2023-07-31T10:58:31;27.60;43.30
19060;DHT22;9663;48.996;8.334;2023-07-31T11:01:05;27.70;43.20
19060;DHT22;9663;48.996;8.334;2023-07-31T11:03:46;27.90;43.30
19060;DHT22;9663;48.996;8.334;2023-07-31T11:06:22;28.10;43.20
19060;DHT22;9663;48.996;8.334;2023-07-31T11:08:50;28.30;42.70
19060;DHT22;9663;48.996;8.334;2023-07-31T11:11:17;28.40;42.30
19060;DHT22;9663;48.996;8.334;2023-07-31T11:13:52;28.50;42.10
19060;DHT22;9663;48.996;8.334;2023-07-31T11:16:24;28.40;41.70
19060;DHT22;9663;48.996;8.334;2023-07-31T11:18:51;28.50;41.90
19060;DHT22;9663;48.996;8.334;2023-07-31T11:21:21;28.50;42.00
19060;DHT22;9663;48.996;8.334;2023-07-31T11:23:50;28.60;41.90
19060;DHT22;9663;48.996;8.334;2023-07-31T11:26:18;28.70;41.90
19060;DHT22;9663;48.996;8.334;2023-07-31T11:28:48;28.80;42.30
19060;DHT22;9663;48.996;8.334;2023-07-31T11:31:15;29.00;41.90
19060;DHT22;9663;48.996;8.334;2023-07-31T11:33:40;29.20;42.00
19060;DHT22;9663;48.996;8.334;2023-07-31T11:36:06;29.30;41.90
19060;DHT22;9663;48.996;8.334;2023-07-31T11:38:33;29.50;41.10
19060;DHT22;9663;48.996;8.334;2023-07-31T11:41:02;29.50;40.70
19060;DHT22;9663;48.996;8.334;2023-07-31T11:43:29;29.50;40.60
19060;DHT22;9663;48.996;8.334;2023-07-31T11:45:58;29.50;40.70
19060;DHT22;9663;48.996;8.334;2023-07-31T11:48:27;29.50;40.40
19060;DHT22;9663;48.996;8.334;2023-07-31T11:50:58;29.50;40.30
19060;DHT22;9663;48.996;8.334;2023-07-31T11:53:50;29.50;40.40
19060;DHT22;9663;48.996;8.334;2023-07-31T11:56:18;29.60;40.20
19060;DHT22;9663;48.996;8.334;2023-07-31T11:58:46;29.80;40.40
19060;DHT22;9663;48.996;8.334;2023-07-31T12:01:15;29.80;40.00
19060;DHT22;9663;48.996;8.334;2023-07-31T12:03:46;29.80;40.00
19060;DHT22;9663;48.996;8.334;2023-07-31T12:06:15;29.80;40.30
19060;DHT22;9663;48.996;8.334;2023-07-31T12:08:41;30.00;41.10
19060;DHT22;9663;48.996;8.334;2023-07-31T12:11:11;30.50;41.30
19060;DHT22;9663;48.996;8.334;2023-07-31T12:13:37;30.90;40.90
19060;DHT22;9663;48.996;8.334;2023-07-31T12:16:05;31.40;39.30
19060;DHT22;9663;48.996;8.334;2023-07-31T12:18:37;31.80;39.20
19060;DHT22;9663;48.996;8.334;2023-07-31T12:21:06;32.10;38.60
19060;DHT22;9663;48.996;8.334;2023-07-31T12:23:37;32.20;37.30
19060;DHT22;9663;48.996;8.334;2023-07-31T12:26:14;32.60;38.30
19060;DHT22;9663;48.996;8.334;2023-07-31T12:28:49;32.80;37.40
19060;DHT22;9663;48.996;8.334;2023-07-31T12:31:17;33.00;36.40
19060;DHT22;9663;48.996;8.334;2023-07-31T12:33:48;33.00;36.80
19060;DHT22;9663;48.996;8.334;2023-07-31T12:36:17;32.90;36.60
19060;DHT22;9663;48.996;8.334;2023-07-31T12:38:47;32.60;35.80
19060;DHT22;9663;48.996;8.334;2023-07-31T12:41:14;32.30;35.80
19060;DHT22;9663;48.996;8.334;2023-07-31T12:43:44;31.90;36.00
19060;DHT22;9663;48.996;8.334;2023-07-31T12:46:11;31.50;35.70
19060;DHT22;9663;48.996;8.334;2023-07-31T12:48:37;31.20;36.40
19060;DHT22;9663;48.996;8.334;2023-07-31T12:51:06;30.90;36.70
19060;DHT22;9663;48.996;8.334;2023-07-31T12:53:32;30.70;37.00
19060;DHT22;9663;48.996;8.334;2023-07-31T12:55:58;30.50;37.90
19060;DHT22;9663;48.996;8.334;2023-07-31T12:58:28;30.30;37.50
19060;DHT22;9663;48.996;8.334;2023-07-31T13:01:02;30.30;37.70
19060;DHT22;9663;48.996;8.334;2023-07-31T13:03:29;30.20;37.90
19060;DHT22;9663;48.996;8.334;2023-07-31T13:05:56;30.20;37.80
19060;DHT22;9663;48.996;8.334;2023-07-31T13:08:24;30.10;37.80
19060;DHT22;9663;48.996;8.334;2023-07-31T13:10:51;30.00;37.60
19060;DHT22;9663;48.996;8.334;2023-07-31T13:13:17;29.80;37.40
19060;DHT22;9663;48.996;8.334;2023-07-31T13:15:43;29.60;37.60
19060;DHT22;9663;48.996;8.334;2023-07-31T13:18:10;29.30;37.50
19060;DHT22;9663;48.996;8.334;2023-07-31T13:20:36;29.20;37.90
19060;DHT22;9663;48.996;8.334;2023-07-31T13:23:01;29.00;38.30
19060;DHT22;9663;48.996;8.334;2023-07-31T13:25:27;28.90;38.40
19060;DHT22;9663;48.996;8.334;2023-07-31T13:27:53;28.80;38.80
19060;DHT22;9663;48.996;8.334;2023-07-31T13:30:18;28.70;39.00
19060;DHT22;9663;48.996;8.334;2023-07-31T13:32:45;28.70;39.00
19060;DHT22;9663;48.996;8.334;2023-07-31T13:35:11;28.70;39.10
19060;DHT22;9663;48.996;8.334;2023-07-31T13:37:37;28.60;39.30
19060;DHT22;9663;48.996;8.334;2023-07-31T13:40:03;28.60;39.30
19060;DHT22;9663;48.996;8.334;2023-07-31T13:42:30;28.50;39.20
19060;DHT22;9663;48.996;8.334;2023-07-31T13:44:56;28.40;39.30
19060;DHT22;9663;48.996;8.334;2023-07-31T13:47:22;28.40;39.50
19060;DHT22;9663;48.996;8.334;2023-07-31T13:49:48;28.40;39.50
19060;DHT22;9663;48.996;8.334;2023-07-31T13:52:14;28.40;39.60
19060;DHT22;9663;48.996;8.334;2023-07-31T13:54:40;28.50;39.60
19060;DHT22;9663;48.996;8.334;2023-07-31T13:57:07;28.60;39.60
19060;DHT22;9663;48.996;8.334;2023-07-31T13:59:33;28.60;39.60
19060;DHT22;9663;48.996;8.334;2023-07-31T14:01:59;28.60;39.50
19060;DHT22;9663;48.996;8.334;2023-07-31T14:04:25;28.60;39.60
19060;DHT22;9663;48.996;8.334;2023-07-31T14:06:51;28.70;39.40
19060;DHT22;9663;48.996;8.334;2023-07-31T14:09:17;28.50;39.30
19060;DHT22;9663;48.996;8.334;2023-07-31T14:11:43;28.40;39.30
19060;DHT22;9663;48.996;8.334;2023-07-31T14:14:09;28.30;39.50
19060;DHT22;9663;48.996;8.334;2023-07-31T14:16:35;28.30;39.50
19060;DHT22;9663;48.996;8.334;2023-07-31T14:19:01;28.20;39.50
19060;DHT22;9663;48.996;8.334;2023-07-31T14:21:27;28.10;39.50
19060;DHT22;9663;48.996;8.334;2023-07-31T14:23:53;28.00;39.60
19060;DHT22;9663;48.996;8.334;2023-07-31T14:26:18;27.90;39.80
19060;DHT22;9663;48.996;8.334;2023-07-31T14:28:44;27.80;39.70
19060;DHT22;9663;48.996;8.334;2023-07-31T14:31:10;27.70;39.80
19060;DHT22;9663;48.996;8.334;2023-07-31T14:33:35;27.70;40.00
19060;DHT22;9663;48.996;8.334;2023-07-31T14:36:01;27.70;40.20
19060;DHT22;9663;48.996;8.334;2023-07-31T14:38:27;27.60;40.30
19060;DHT22;9663;48.996;8.334;2023-07-31T14:40:53;27.70;40.60
19060;DHT22;9663;48.996;8.334;2023-07-31T14:43:19;27.80;40.80
19060;DHT22;9663;48.996;8.334;2023-07-31T14:45:44;28.00;40.90
19060;DHT22;9663;48.996;8.334;2023-07-31T14:48:12;28.20;40.70
19060;DHT22;9663;48.996;8.334;2023-07-31T14:50:37;28.30;40.50
19060;DHT22;9663;48.996;8.334;2023-07-31T14:53:03;28.40;40.50
19060;DHT22;9663;48.996;8.334;2023-07-31T14:55:29;28.40;40.70
19060;DHT22;9663;48.996;8.334;2023-07-31T14:57:54;28.50;40.70
19060;DHT22;9663;48.996;8.334;2023-07-31T15:00:20;28.60;41.10
19060;DHT22;9663;48.996;8.334;2023-07-31T15:02:46;28.70;41.00
19060;DHT22;9663;48.996;8.334;2023-07-31T15:05:12;28.90;40.60
19060;DHT22;9663;48.996;8.334;2023-07-31T15:07:37;29.00;40.60
19060;DHT22;9663;48.996;8.334;2023-07-31T15:10:03;29.20;40.40
19060;DHT22;9663;48.996;8.334;2023-07-31T15:12:30;29.40;40.40
19060;DHT22;9663;48.996;8.334;2023-07-31T15:14:57;29.60;40.50
19060;DHT22;9663;48.996;8.334;2023-07-31T15:17:22;29.90;40.40
19060;DHT22;9663;48.996;8.334;2023-07-31T15:19:49;30.10;40.20
19060;DHT22;9663;48.996;8.334;2023-07-31T15:22:15;30.30;40.00
19060;DHT22;9663;48.996;8.334;2023-07-31T15:24:40;30.40;39.60
19060;DHT22;9663;48.996;8.334;2023-07-31T15:27:06;30.50;39.60
19060;DHT22;9663;48.996;8.334;2023-07-31T15:29:33;30.60;39.40
19060;DHT22;9663;48.996;8.334;2023-07-31T15:32:05;30.60;39.30
19060;DHT22;9663;48.996;8.334;2023-07-31T15:34:31;30.60;38.90
19060;DHT22;9663;48.996;8.334;2023-07-31T15:36:57;30.50;38.70
19060;DHT22;9663;48.996;8.334;2023-07-31T15:39:22;30.30;38.30
19060;DHT22;9663;48.996;8.334;2023-07-31T15:41:48;29.80;38.70
19060;DHT22;9663;48.996;8.334;2023-07-31T15:44:14;29.30;38.80
19060;DHT22;9663;48.996;8.334;2023-07-31T15:46:39;29.20;39.10
19060;DHT22;9663;48.996;8.334;2023-07-31T15:49:05;29.00;39.10
19060;DHT22;9663;48.996;8.334;2023-07-31T15:51:30;28.80;39.10
19060;DHT22;9663;48.996;8.334;2023-07-31T15:53:56;28.60;39.30
19060;DHT22;9663;48.996;8.334;2023-07-31T15:56:22;28.40;39.60
19060;DHT22;9663;48.996;8.334;2023-07-31T15:58:47;28.20;39.80
19060;DHT22;9663;48.996;8.334;2023-07-31T16:01:14;28.10;40.00